sensor_id;sensor_type;location;lat;lon;timestamp;P1;durP1;ratioP1;P2;durP2;ratioP2
4903;SDS011;2467;48.142;11.616;2022-12-18T00:00:05;48.85;;;28.15;;
4903;SDS011;2467;48.142;11.616;2022-12-18T00:00:40;37.38;;;26.15;;
4903;SDS011;2467;48.142;11.616;2022-12-18T00:01:15;45.53;;;27.30;;
4903;SDS011;2467;48.142;11.616;2022-12-18T00:01:48;43.78;;;27.10;;
4903;SDS011;2467;48.142;11.616;2022-12-18T00:02:21;41.42;;;26.98;;
4903;SDS011;2467;48.142;11.616;2022-12-18T00:02:53;43.13;;;26.10;;
4903;SDS011;2467;48.142;11.616;2022-12-18T00:03:26;45.38;;;26.80;;
4903;SDS011;2467;48.142;11.616;2022-12-18T00:03:59;42.95;;;26.95;;
4903;SDS011;2467;48.142;11.616;2022-12-18T00:04:37;42.55;;;27.35;;
4903;SDS011;2467;48.142;11.616;2022-12-18T00:05:09;42.88;;;27.83;;
4903;SDS011;2467;48.142;11.616;2022-12-18T00:05:47;48.72;;;28.77;;
4903;SDS011;2467;48.142;11.616;2022-12-18T00:06:19;41.65;;;25.02;;
4903;SDS011;2467;48.142;11.616;2022-12-18T00:06:52;44.90;;;25.75;;
4903;SDS011;2467;48.142;11.616;2022-12-18T00:07:25;44.30;;;25.15;;
4903;SDS011;2467;48.142;11.616;2022-12-18T00:07:57;45.55;;;27.13;;
4903;SDS011;2467;48.142;11.616;2022-12-18T00:08:29;39.15;;;25.10;;
4903;SDS011;2467;48.142;11.616;2022-12-18T00:09:02;44.85;;;26.25;;
4903;SDS011;2467;48.142;11.616;2022-12-18T00:09:35;40.33;;;25.17;;
4903;SDS011;2467;48.142;11.616;2022-12-18T00:10:10;42.80;;;24.60;;
4903;SDS011;2467;48.142;11.616;2022-12-18T00:10:45;41.78;;;27.13;;
4903;SDS011;2467;48.142;11.616;2022-12-18T00:11:18;44.65;;;26.98;;
4903;SDS011;2467;48.142;11.616;2022-12-18T00:11:51;48.17;;;26.88;;
4903;SDS011;2467;48.142;11.616;2022-12-18T00:12:24;48.15;;;26.30;;
4903;SDS011;2467;48.142;11.616;2022-12-18T00:12:56;48.60;;;26.67;;
4903;SDS011;2467;48.142;11.616;2022-12-18T00:13:28;43.40;;;26.48;;
4903;SDS011;2467;48.142;11.616;2022-12-18T00:14:00;42.72;;;25.70;;
4903;SDS011;2467;48.142;11.616;2022-12-18T00:14:34;43.33;;;25.30;;
4903;SDS011;2467;48.142;11.616;2022-12-18T00:15:06;44.35;;;28.63;;
4903;SDS011;2467;48.142;11.616;2022-12-18T00:15:39;48.40;;;26.92;;
4903;SDS011;2467;48.142;11.616;2022-12-18T00:16:11;49.28;;;28.92;;
4903;SDS011;2467;48.142;11.616;2022-12-18T00:16:45;46.80;;;25.80;;
4903;SDS011;2467;48.142;11.616;2022-12-18T00:17:18;42.08;;;26.88;;
4903;SDS011;2467;48.142;11.616;2022-12-18T00:17:50;50.42;;;27.00;;
4903;SDS011;2467;48.142;11.616;2022-12-18T00:18:22;44.75;;;26.75;;
4903;SDS011;2467;48.142;11.616;2022-12-18T00:18:55;42.17;;;25.65;;
4903;SDS011;2467;48.142;11.616;2022-12-18T00:19:29;45.38;;;26.83;;
4903;SDS011;2467;48.142;11.616;2022-12-18T00:20:01;45.65;;;26.88;;
4903;SDS011;2467;48.142;11.616;2022-12-18T00:20:37;44.17;;;25.65;;
4903;SDS011;2467;48.142;11.616;2022-12-18T00:21:11;41.10;;;25.40;;
4903;SDS011;2467;48.142;11.616;2022-12-18T00:21:44;38.35;;;24.00;;
4903;SDS011;2467;48.142;11.616;2022-12-18T00:22:18;45.58;;;25.73;;
4903;SDS011;2467;48.142;11.616;2022-12-18T00:22:50;42.92;;;24.67;;
4903;SDS011;2467;48.142;11.616;2022-12-18T00:23:22;48.42;;;27.27;;
4903;SDS011;2467;48.142;11.616;2022-12-18T00:23:55;43.38;;;24.08;;
4903;SDS011;2467;48.142;11.616;2022-12-18T00:24:27;43.72;;;26.95;;
4903;SDS011;2467;48.142;11.616;2022-12-18T00:24:58;41.70;;;24.65;;
4903;SDS011;2467;48.142;11.616;2022-12-18T00:25:32;45.33;;;26.63;;
4903;SDS011;2467;48.142;11.616;2022-12-18T00:26:05;43.65;;;23.83;;
4903;SDS011;2467;48.142;11.616;2022-12-18T00:26:38;36.33;;;24.85;;
4903;SDS011;2467;48.142;11.616;2022-12-18T00:27:10;38.67;;;26.38;;
4903;SDS011;2467;48.142;11.616;2022-12-18T00:27:43;47.97;;;27.02;;
4903;SDS011;2467;48.142;11.616;2022-12-18T00:28:15;46.60;;;27.08;;
4903;SDS011;2467;48.142;11.616;2022-12-18T00:28:47;37.42;;;23.55;;
4903;SDS011;2467;48.142;11.616;2022-12-18T00:29:19;52.13;;;26.98;;
4903;SDS011;2467;48.142;11.616;2022-12-18T00:29:53;47.80;;;25.25;;
4903;SDS011;2467;48.142;11.616;2022-12-18T00:30:25;50.38;;;26.30;;
4903;SDS011;2467;48.142;11.616;2022-12-18T00:31:01;45.95;;;26.50;;
4903;SDS011;2467;48.142;11.616;2022-12-18T00:31:33;42.58;;;23.73;;
4903;SDS011;2467;48.142;11.616;2022-12-18T00:32:05;40.90;;;24.33;;
4903;SDS011;2467;48.142;11.616;2022-12-18T00:32:38;41.40;;;24.60;;
4903;SDS011;2467;48.142;11.616;2022-12-18T00:33:10;44.72;;;25.10;;
4903;SDS011;2467;48.142;11.616;2022-12-18T00:33:42;44.20;;;26.95;;
4903;SDS011;2467;48.142;11.616;2022-12-18T00:34:14;41.33;;;25.13;;
4903;SDS011;2467;48.142;11.616;2022-12-18T00:34:47;47.58;;;28.67;;
4903;SDS011;2467;48.142;11.616;2022-12-18T00:35:19;41.25;;;26.08;;
4903;SDS011;2467;48.142;11.616;2022-12-18T00:35:50;44.22;;;28.08;;
4903;SDS011;2467;48.142;11.616;2022-12-18T00:36:23;43.22;;;24.88;;
4903;SDS011;2467;48.142;11.616;2022-12-18T00:36:58;43.97;;;25.65;;
4903;SDS011;2467;48.142;11.616;2022-12-18T00:37:30;49.45;;;26.80;;
4903;SDS011;2467;48.142;11.616;2022-12-18T00:38:02;39.90;;;26.20;;
4903;SDS011;2467;48.142;11.616;2022-12-18T00:38:36;41.78;;;24.38;;
4903;SDS011;2467;48.142;11.616;2022-12-18T00:39:09;40.00;;;23.50;;
4903;SDS011;2467;48.142;11.616;2022-12-18T00:39:42;47.10;;;26.48;;
4903;SDS011;2467;48.142;11.616;2022-12-18T00:40:15;39.88;;;25.05;;
4903;SDS011;2467;48.142;11.616;2022-12-18T00:40:47;40.83;;;25.20;;
4903;SDS011;2467;48.142;11.616;2022-12-18T00:41:19;41.42;;;24.65;;
4903;SDS011;2467;48.142;11.616;2022-12-18T00:42:07;40.95;;;22.98;;
4903;SDS011;2467;48.142;11.616;2022-12-18T00:43:00;40.22;;;22.00;;
4903;SDS011;2467;48.142;11.616;2022-12-18T00:43:32;43.20;;;21.83;;
4903;SDS011;2467;48.142;11.616;2022-12-18T00:44:05;39.03;;;24.75;;
4903;SDS011;2467;48.142;11.616;2022-12-18T00:44:38;46.47;;;24.20;;
4903;SDS011;2467;48.142;11.616;2022-12-18T00:45:11;41.17;;;24.05;;
4903;SDS011;2467;48.142;11.616;2022-12-18T00:45:44;38.60;;;22.60;;
4903;SDS011;2467;48.142;11.616;2022-12-18T00:46:17;36.80;;;23.42;;
4903;SDS011;2467;48.142;11.616;2022-12-18T00:46:49;39.33;;;22.83;;
4903;SDS011;2467;48.142;11.616;2022-12-18T00:47:22;41.20;;;24.70;;
4903;SDS011;2467;48.142;11.616;2022-12-18T00:47:54;40.13;;;21.90;;
4903;SDS011;2467;48.142;11.616;2022-12-18T00:48:27;37.05;;;22.60;;
4903;SDS011;2467;48.142;11.616;2022-12-18T00:48:59;36.97;;;22.08;;
4903;SDS011;2467;48.142;11.616;2022-12-18T00:49:31;36.10;;;23.02;;
4903;SDS011;2467;48.142;11.616;2022-12-18T00:50:03;38.47;;;23.08;;
4903;SDS011;2467;48.142;11.616;2022-12-18T00:50:37;46.50;;;25.00;;
4903;SDS011;2467;48.142;11.616;2022-12-18T00:51:09;38.40;;;23.08;;
4903;SDS011;2467;48.142;11.616;2022-12-18T00:51:41;45.22;;;22.30;;
4903;SDS011;2467;48.142;11.616;2022-12-18T00:52:14;41.45;;;22.55;;
4903;SDS011;2467;48.142;11.616;2022-12-18T00:52:46;35.55;;;23.40;;
4903;SDS011;2467;48.142;11.616;2022-12-18T00:53:18;34.45;;;21.05;;
4903;SDS011;2467;48.142;11.616;2022-12-18T00:53:51;38.08;;;23.25;;
4903;SDS011;2467;48.142;11.616;2022-12-18T00:54:23;38.40;;;22.65;;
4903;SDS011;2467;48.142;11.616;2022-12-18T00:54:56;38.40;;;24.33;;
4903;SDS011;2467;48.142;11.616;2022-12-18T00:55:36;41.55;;;24.25;;
4903;SDS011;2467;48.142;11.616;2022-12-18T00:56:08;36.60;;;22.63;;
4903;SDS011;2467;48.142;11.616;2022-12-18T00:56:41;39.03;;;23.40;;
4903;SDS011;2467;48.142;11.616;2022-12-18T00:57:20;36.75;;;22.60;;
4903;SDS011;2467;48.142;11.616;2022-12-18T00:57:52;34.42;;;21.13;;
4903;SDS011;2467;48.142;11.616;2022-12-18T00:58:24;44.28;;;24.55;;
4903;SDS011;2467;48.142;11.616;2022-12-18T00:58:56;39.65;;;22.55;;
4903;SDS011;2467;48.142;11.616;2022-12-18T00:59:28;39.97;;;24.70;;
4903;SDS011;2467;48.142;11.616;2022-12-18T01:00:01;37.47;;;21.67;;
4903;SDS011;2467;48.142;11.616;2022-12-18T01:00:36;33.85;;;22.05;;
4903;SDS011;2467;48.142;11.616;2022-12-18T01:01:09;42.80;;;22.67;;
4903;SDS011;2467;48.142;11.616;2022-12-18T01:01:41;40.38;;;23.98;;
4903;SDS011;2467;48.142;11.616;2022-12-18T01:02:14;36.63;;;23.92;;
4903;SDS011;2467;48.142;11.616;2022-12-18T01:02:46;38.40;;;22.42;;
4903;SDS011;2467;48.142;11.616;2022-12-18T01:03:18;39.30;;;23.70;;
4903;SDS011;2467;48.142;11.616;2022-12-18T01:03:51;37.47;;;22.00;;
4903;SDS011;2467;48.142;11.616;2022-12-18T01:04:22;42.00;;;22.88;;
4903;SDS011;2467;48.142;11.616;2022-12-18T01:04:55;38.53;;;23.17;;
4903;SDS011;2467;48.142;11.616;2022-12-18T01:05:27;37.80;;;23.55;;
4903;SDS011;2467;48.142;11.616;2022-12-18T01:05:59;38.70;;;25.15;;
4903;SDS011;2467;48.142;11.616;2022-12-18T01:06:36;33.65;;;21.20;;
4903;SDS011;2467;48.142;11.616;2022-12-18T01:07:08;41.50;;;23.75;;
4903;SDS011;2467;48.142;11.616;2022-12-18T01:07:41;38.65;;;24.48;;
4903;SDS011;2467;48.142;11.616;2022-12-18T01:08:13;36.95;;;23.50;;
4903;SDS011;2467;48.142;11.616;2022-12-18T01:08:46;39.72;;;23.25;;
4903;SDS011;2467;48.142;11.616;2022-12-18T01:09:18;37.20;;;23.27;;
4903;SDS011;2467;48.142;11.616;2022-12-18T01:09:49;46.83;;;24.10;;
4903;SDS011;2467;48.142;11.616;2022-12-18T01:10:22;38.75;;;22.85;;
4903;SDS011;2467;48.142;11.616;2022-12-18T01:10:55;40.30;;;23.25;;
4903;SDS011;2467;48.142;11.616;2022-12-18T01:11:26;36.65;;;22.27;;
4903;SDS011;2467;48.142;11.616;2022-12-18T01:11:59;40.50;;;22.27;;
4903;SDS011;2467;48.142;11.616;2022-12-18T01:12:31;32.83;;;22.17;;
4903;SDS011;2467;48.142;11.616;2022-12-18T01:13:03;41.30;;;24.65;;
4903;SDS011;2467;48.142;11.616;2022-12-18T01:13:35;36.63;;;23.02;;
4903;SDS011;2467;48.142;11.616;2022-12-18T01:14:09;33.40;;;21.88;;
4903;SDS011;2467;48.142;11.616;2022-12-18T01:14:41;40.13;;;24.52;;
4903;SDS011;2467;48.142;11.616;2022-12-18T01:15:13;47.13;;;24.60;;
4903;SDS011;2467;48.142;11.616;2022-12-18T01:15:49;41.10;;;23.83;;
4903;SDS011;2467;48.142;11.616;2022-12-18T01:16:21;46.35;;;24.23;;
4903;SDS011;2467;48.142;11.616;2022-12-18T01:16:53;42.33;;;25.45;;
4903;SDS011;2467;48.142;11.616;2022-12-18T01:17:25;42.35;;;23.10;;
4903;SDS011;2467;48.142;11.616;2022-12-18T01:17:57;38.10;;;24.60;;
4903;SDS011;2467;48.142;11.616;2022-12-18T01:18:29;34.70;;;23.50;;
4903;SDS011;2467;48.142;11.616;2022-12-18T01:19:01;34.03;;;22.38;;
4903;SDS011;2467;48.142;11.616;2022-12-18T01:19:34;41.08;;;24.27;;
4903;SDS011;2467;48.142;11.616;2022-12-18T01:20:07;37.85;;;23.50;;
4903;SDS011;2467;48.142;11.616;2022-12-18T01:20:40;39.40;;;22.77;;
4903;SDS011;2467;48.142;11.616;2022-12-18T01:21:12;39.53;;;23.33;;
4903;SDS011;2467;48.142;11.616;2022-12-18T01:21:46;32.25;;;21.55;;
4903;SDS011;2467;48.142;11.616;2022-12-18T01:22:18;38.83;;;24.70;;
4903;SDS011;2467;48.142;11.616;2022-12-18T01:22:50;41.50;;;24.42;;
4903;SDS011;2467;48.142;11.616;2022-12-18T01:23:23;36.33;;;23.73;;
4903;SDS011;2467;48.142;11.616;2022-12-18T01:23:55;35.95;;;23.90;;
4903;SDS011;2467;48.142;11.616;2022-12-18T01:24:27;39.25;;;23.35;;
4903;SDS011;2467;48.142;11.616;2022-12-18T01:25:00;42.72;;;25.10;;
4903;SDS011;2467;48.142;11.616;2022-12-18T01:25:32;42.70;;;24.15;;
4903;SDS011;2467;48.142;11.616;2022-12-18T01:26:06;44.05;;;26.70;;
4903;SDS011;2467;48.142;11.616;2022-12-18T01:26:39;40.50;;;25.00;;
4903;SDS011;2467;48.142;11.616;2022-12-18T01:27:12;42.50;;;26.17;;
4903;SDS011;2467;48.142;11.616;2022-12-18T01:27:44;38.15;;;24.80;;
4903;SDS011;2467;48.142;11.616;2022-12-18T01:28:16;35.15;;;22.20;;
4903;SDS011;2467;48.142;11.616;2022-12-18T01:28:48;38.05;;;24.42;;
4903;SDS011;2467;48.142;11.616;2022-12-18T01:29:21;38.88;;;25.08;;
4903;SDS011;2467;48.142;11.616;2022-12-18T01:29:52;34.40;;;23.73;;
4903;SDS011;2467;48.142;11.616;2022-12-18T01:30:24;42.40;;;25.15;;
4903;SDS011;2467;48.142;11.616;2022-12-18T01:30:58;36.60;;;23.95;;
4903;SDS011;2467;48.142;11.616;2022-12-18T01:31:41;42.30;;;24.02;;
4903;SDS011;2467;48.142;11.616;2022-12-18T01:32:13;42.10;;;24.50;;
4903;SDS011;2467;48.142;11.616;2022-12-18T01:32:46;42.85;;;24.92;;
4903;SDS011;2467;48.142;11.616;2022-12-18T01:33:18;45.13;;;26.83;;
4903;SDS011;2467;48.142;11.616;2022-12-18T01:33:49;37.70;;;24.13;;
4903;SDS011;2467;48.142;11.616;2022-12-18T01:34:23;40.65;;;24.15;;
4903;SDS011;2467;48.142;11.616;2022-12-18T01:34:55;37.65;;;25.10;;
4903;SDS011;2467;48.142;11.616;2022-12-18T01:35:27;43.55;;;27.58;;
4903;SDS011;2467;48.142;11.616;2022-12-18T01:35:59;38.00;;;24.30;;
4903;SDS011;2467;48.142;11.616;2022-12-18T01:36:32;42.13;;;25.33;;
4903;SDS011;2467;48.142;11.616;2022-12-18T01:37:05;43.47;;;26.42;;
4903;SDS011;2467;48.142;11.616;2022-12-18T01:37:37;47.97;;;27.02;;
4903;SDS011;2467;48.142;11.616;2022-12-18T01:38:10;44.55;;;25.88;;
4903;SDS011;2467;48.142;11.616;2022-12-18T01:38:42;39.05;;;24.45;;
4903;SDS011;2467;48.142;11.616;2022-12-18T01:39:14;44.45;;;26.10;;
4903;SDS011;2467;48.142;11.616;2022-12-18T01:39:47;40.92;;;25.70;;
4903;SDS011;2467;48.142;11.616;2022-12-18T01:40:21;42.42;;;25.30;;
4903;SDS011;2467;48.142;11.616;2022-12-18T01:40:56;38.35;;;24.40;;
4903;SDS011;2467;48.142;11.616;2022-12-18T01:41:29;41.05;;;23.77;;
4903;SDS011;2467;48.142;11.616;2022-12-18T01:42:22;40.75;;;21.85;;
4903;SDS011;2467;48.142;11.616;2022-12-18T01:42:56;46.70;;;25.45;;
4903;SDS011;2467;48.142;11.616;2022-12-18T01:43:41;47.72;;;26.40;;
4903;SDS011;2467;48.142;11.616;2022-12-18T01:45:24;46.35;;;24.40;;
4903;SDS011;2467;48.142;11.616;2022-12-18T01:46:00;43.72;;;24.63;;
4903;SDS011;2467;48.142;11.616;2022-12-18T01:46:33;38.88;;;25.45;;
4903;SDS011;2467;48.142;11.616;2022-12-18T01:47:04;39.65;;;26.02;;
4903;SDS011;2467;48.142;11.616;2022-12-18T01:47:38;44.65;;;26.83;;
4903;SDS011;2467;48.142;11.616;2022-12-18T01:48:15;41.80;;;26.25;;
4903;SDS011;2467;48.142;11.616;2022-12-18T01:48:48;41.53;;;24.92;;
4903;SDS011;2467;48.142;11.616;2022-12-18T01:49:21;41.80;;;25.45;;
4903;SDS011;2467;48.142;11.616;2022-12-18T01:49:54;45.67;;;25.60;;
4903;SDS011;2467;48.142;11.616;2022-12-18T01:50:29;41.70;;;24.98;;
4903;SDS011;2467;48.142;11.616;2022-12-18T01:51:03;40.38;;;25.17;;
4903;SDS011;2467;48.142;11.616;2022-12-18T01:51:37;42.95;;;25.05;;
4903;SDS011;2467;48.142;11.616;2022-12-18T01:52:09;39.25;;;25.63;;
4903;SDS011;2467;48.142;11.616;2022-12-18T01:52:41;41.10;;;27.95;;
4903;SDS011;2467;48.142;11.616;2022-12-18T01:53:17;43.97;;;27.13;;
4903;SDS011;2467;48.142;11.616;2022-12-18T01:53:51;43.20;;;27.98;;
4903;SDS011;2467;48.142;11.616;2022-12-18T01:54:24;40.20;;;25.10;;
4903;SDS011;2467;48.142;11.616;2022-12-18T01:54:56;40.50;;;26.10;;
4903;SDS011;2467;48.142;11.616;2022-12-18T01:55:29;45.33;;;26.35;;
4903;SDS011;2467;48.142;11.616;2022-12-18T01:56:04;42.15;;;26.25;;
4903;SDS011;2467;48.142;11.616;2022-12-18T01:56:36;44.50;;;26.13;;
4903;SDS011;2467;48.142;11.616;2022-12-18T01:57:08;36.65;;;25.00;;
4903;SDS011;2467;48.142;11.616;2022-12-18T01:57:40;47.97;;;28.13;;
4903;SDS011;2467;48.142;11.616;2022-12-18T01:58:14;43.92;;;27.83;;
4903;SDS011;2467;48.142;11.616;2022-12-18T01:58:49;46.17;;;27.80;;
4903;SDS011;2467;48.142;11.616;2022-12-18T01:59:25;42.78;;;25.25;;
4903;SDS011;2467;48.142;11.616;2022-12-18T01:59:59;42.33;;;26.70;;
4903;SDS011;2467;48.142;11.616;2022-12-18T02:00:34;50.05;;;28.98;;
4903;SDS011;2467;48.142;11.616;2022-12-18T02:01:07;43.20;;;26.25;;
4903;SDS011;2467;48.142;11.616;2022-12-18T02:01:41;46.22;;;27.85;;
4903;SDS011;2467;48.142;11.616;2022-12-18T02:02:13;44.40;;;27.05;;
4903;SDS011;2467;48.142;11.616;2022-12-18T02:02:46;40.15;;;25.60;;
4903;SDS011;2467;48.142;11.616;2022-12-18T02:03:20;42.35;;;26.00;;
4903;SDS011;2467;48.142;11.616;2022-12-18T02:03:52;46.63;;;26.88;;
4903;SDS011;2467;48.142;11.616;2022-12-18T02:04:25;42.35;;;25.52;;
4903;SDS011;2467;48.142;11.616;2022-12-18T02:04:59;44.70;;;26.20;;
4903;SDS011;2467;48.142;11.616;2022-12-18T02:05:35;46.22;;;27.02;;
4903;SDS011;2467;48.142;11.616;2022-12-18T02:06:13;51.33;;;27.13;;
4903;SDS011;2467;48.142;11.616;2022-12-18T02:06:49;38.90;;;25.20;;
4903;SDS011;2467;48.142;11.616;2022-12-18T02:07:29;44.67;;;27.88;;
4903;SDS011;2467;48.142;11.616;2022-12-18T02:08:14;41.03;;;25.75;;
4903;SDS011;2467;48.142;11.616;2022-12-18T02:08:55;47.67;;;26.75;;
4903;SDS011;2467;48.142;11.616;2022-12-18T02:09:36;43.28;;;24.50;;
4903;SDS011;2467;48.142;11.616;2022-12-18T02:10:15;46.83;;;27.30;;
4903;SDS011;2467;48.142;11.616;2022-12-18T02:10:54;43.35;;;26.55;;
4903;SDS011;2467;48.142;11.616;2022-12-18T02:11:39;41.75;;;24.92;;
4903;SDS011;2467;48.142;11.616;2022-12-18T02:12:19;48.38;;;27.30;;
4903;SDS011;2467;48.142;11.616;2022-12-18T02:12:54;42.60;;;25.90;;
4903;SDS011;2467;48.142;11.616;2022-12-18T02:13:36;52.35;;;27.10;;
4903;SDS011;2467;48.142;11.616;2022-12-18T02:14:16;45.88;;;27.52;;
4903;SDS011;2467;48.142;11.616;2022-12-18T02:14:55;39.95;;;25.63;;
4903;SDS011;2467;48.142;11.616;2022-12-18T02:15:32;41.67;;;26.00;;
4903;SDS011;2467;48.142;11.616;2022-12-18T02:16:15;43.20;;;25.80;;
4903;SDS011;2467;48.142;11.616;2022-12-18T02:16:54;42.28;;;24.33;;
4903;SDS011;2467;48.142;11.616;2022-12-18T02:17:34;45.83;;;26.70;;
4903;SDS011;2467;48.142;11.616;2022-12-18T02:18:11;46.17;;;27.27;;
4903;SDS011;2467;48.142;11.616;2022-12-18T02:18:50;51.15;;;29.90;;
4903;SDS011;2467;48.142;11.616;2022-12-18T02:19:33;46.70;;;27.48;;
4903;SDS011;2467;48.142;11.616;2022-12-18T02:20:20;47.17;;;28.13;;
4903;SDS011;2467;48.142;11.616;2022-12-18T02:20:59;51.88;;;29.10;;
4903;SDS011;2467;48.142;11.616;2022-12-18T02:21:40;44.80;;;29.02;;
4903;SDS011;2467;48.142;11.616;2022-12-18T02:22:24;44.88;;;25.67;;
4903;SDS011;2467;48.142;11.616;2022-12-18T02:23:09;41.97;;;25.55;;
4903;SDS011;2467;48.142;11.616;2022-12-18T02:23:50;46.45;;;26.10;;
4903;SDS011;2467;48.142;11.616;2022-12-18T02:24:29;47.20;;;27.75;;
4903;SDS011;2467;48.142;11.616;2022-12-18T02:25:11;45.08;;;26.00;;
4903;SDS011;2467;48.142;11.616;2022-12-18T02:25:58;44.30;;;25.23;;
4903;SDS011;2467;48.142;11.616;2022-12-18T02:26:45;49.30;;;28.17;;
4903;SDS011;2467;48.142;11.616;2022-12-18T02:27:21;44.67;;;27.70;;
4903;SDS011;2467;48.142;11.616;2022-12-18T02:27:53;48.67;;;26.75;;
4903;SDS011;2467;48.142;11.616;2022-12-18T02:28:30;43.75;;;26.95;;
4903;SDS011;2467;48.142;11.616;2022-12-18T02:29:08;46.22;;;26.63;;
4903;SDS011;2467;48.142;11.616;2022-12-18T02:29:44;47.88;;;27.90;;
4903;SDS011;2467;48.142;11.616;2022-12-18T02:30:29;46.70;;;27.73;;
4903;SDS011;2467;48.142;11.616;2022-12-18T02:31:04;42.78;;;27.38;;
4903;SDS011;2467;48.142;11.616;2022-12-18T02:31:40;47.85;;;27.33;;
4903;SDS011;2467;48.142;11.616;2022-12-18T02:32:17;45.28;;;28.45;;
4903;SDS011;2467;48.142;11.616;2022-12-18T02:32:54;46.58;;;27.30;;
4903;SDS011;2467;48.142;11.616;2022-12-18T02:33:28;53.92;;;28.98;;
4903;SDS011;2467;48.142;11.616;2022-12-18T02:34:03;44.58;;;27.50;;
4903;SDS011;2467;48.142;11.616;2022-12-18T02:34:38;44.25;;;25.38;;
4903;SDS011;2467;48.142;11.616;2022-12-18T02:35:11;47.58;;;27.58;;
4903;SDS011;2467;48.142;11.616;2022-12-18T02:35:47;48.47;;;29.38;;
4903;SDS011;2467;48.142;11.616;2022-12-18T02:36:20;48.95;;;27.77;;
4903;SDS011;2467;48.142;11.616;2022-12-18T02:36:54;48.40;;;28.08;;
4903;SDS011;2467;48.142;11.616;2022-12-18T02:37:28;49.75;;;31.20;;
4903;SDS011;2467;48.142;11.616;2022-12-18T02:38:04;43.03;;;26.80;;
4903;SDS011;2467;48.142;11.616;2022-12-18T02:38:36;46.72;;;27.02;;
4903;SDS011;2467;48.142;11.616;2022-12-18T02:39:09;51.45;;;28.15;;
4903;SDS011;2467;48.142;11.616;2022-12-18T02:39:44;45.70;;;28.35;;
4903;SDS011;2467;48.142;11.616;2022-12-18T02:40:19;47.13;;;27.52;;
4903;SDS011;2467;48.142;11.616;2022-12-18T02:40:54;42.70;;;28.35;;
4903;SDS011;2467;48.142;11.616;2022-12-18T02:41:30;45.40;;;30.00;;
4903;SDS011;2467;48.142;11.616;2022-12-18T02:42:02;46.75;;;29.98;;
4903;SDS011;2467;48.142;11.616;2022-12-18T02:42:38;42.75;;;26.83;;
4903;SDS011;2467;48.142;11.616;2022-12-18T02:43:13;47.33;;;28.75;;
4903;SDS011;2467;48.142;11.616;2022-12-18T02:43:53;50.45;;;29.08;;
4903;SDS011;2467;48.142;11.616;2022-12-18T02:44:27;44.88;;;26.77;;
4903;SDS011;2467;48.142;11.616;2022-12-18T02:45:00;43.83;;;26.38;;
4903;SDS011;2467;48.142;11.616;2022-12-18T02:45:32;46.30;;;28.42;;
4903;SDS011;2467;48.142;11.616;2022-12-18T02:47:00;46.78;;;25.83;;
4903;SDS011;2467;48.142;11.616;2022-12-18T02:47:34;44.55;;;25.10;;
4903;SDS011;2467;48.142;11.616;2022-12-18T02:48:10;42.08;;;26.40;;
4903;SDS011;2467;48.142;11.616;2022-12-18T02:48:41;50.70;;;29.52;;
4903;SDS011;2467;48.142;11.616;2022-12-18T02:49:19;44.20;;;25.92;;
4903;SDS011;2467;48.142;11.616;2022-12-18T02:50:02;41.58;;;25.85;;
4903;SDS011;2467;48.142;11.616;2022-12-18T02:50:43;49.75;;;26.90;;
4903;SDS011;2467;48.142;11.616;2022-12-18T02:51:24;39.63;;;27.13;;
4903;SDS011;2467;48.142;11.616;2022-12-18T02:52:01;43.80;;;26.80;;
4903;SDS011;2467;48.142;11.616;2022-12-18T02:52:44;44.10;;;26.65;;
4903;SDS011;2467;48.142;11.616;2022-12-18T02:53:27;49.42;;;24.88;;
4903;SDS011;2467;48.142;11.616;2022-12-18T02:54:06;46.78;;;28.70;;
4903;SDS011;2467;48.142;11.616;2022-12-18T02:54:48;47.97;;;27.77;;
4903;SDS011;2467;48.142;11.616;2022-12-18T02:55:29;50.58;;;28.02;;
4903;SDS011;2467;48.142;11.616;2022-12-18T02:56:08;43.30;;;27.35;;
4903;SDS011;2467;48.142;11.616;2022-12-18T02:56:48;45.08;;;27.27;;
4903;SDS011;2467;48.142;11.616;2022-12-18T02:57:24;39.22;;;25.95;;
4903;SDS011;2467;48.142;11.616;2022-12-18T02:58:08;46.03;;;25.33;;
4903;SDS011;2467;48.142;11.616;2022-12-18T02:58:49;38.38;;;24.88;;
4903;SDS011;2467;48.142;11.616;2022-12-18T02:59:29;44.83;;;26.40;;
4903;SDS011;2467;48.142;11.616;2022-12-18T03:00:06;48.55;;;25.70;;
4903;SDS011;2467;48.142;11.616;2022-12-18T03:00:41;40.63;;;26.35;;
4903;SDS011;2467;48.142;11.616;2022-12-18T03:01:21;48.60;;;25.98;;
4903;SDS011;2467;48.142;11.616;2022-12-18T03:01:58;49.35;;;27.98;;
4903;SDS011;2467;48.142;11.616;2022-12-18T03:02:37;46.20;;;24.88;;
4903;SDS011;2467;48.142;11.616;2022-12-18T03:03:14;45.70;;;27.63;;
4903;SDS011;2467;48.142;11.616;2022-12-18T03:03:54;47.70;;;26.00;;
4903;SDS011;2467;48.142;11.616;2022-12-18T03:04:30;52.25;;;29.17;;
4903;SDS011;2467;48.142;11.616;2022-12-18T03:05:07;46.08;;;27.48;;
4903;SDS011;2467;48.142;11.616;2022-12-18T03:05:44;45.97;;;28.50;;
4903;SDS011;2467;48.142;11.616;2022-12-18T03:06:23;45.97;;;26.95;;
4903;SDS011;2467;48.142;11.616;2022-12-18T03:07:01;48.03;;;26.15;;
4903;SDS011;2467;48.142;11.616;2022-12-18T03:07:38;46.75;;;26.80;;
4903;SDS011;2467;48.142;11.616;2022-12-18T03:08:15;49.35;;;27.73;;
4903;SDS011;2467;48.142;11.616;2022-12-18T03:08:51;48.72;;;29.75;;
4903;SDS011;2467;48.142;11.616;2022-12-18T03:09:29;51.83;;;29.65;;
4903;SDS011;2467;48.142;11.616;2022-12-18T03:10:06;43.63;;;27.10;;
4903;SDS011;2467;48.142;11.616;2022-12-18T03:10:41;45.67;;;26.90;;
4903;SDS011;2467;48.142;11.616;2022-12-18T03:11:17;43.28;;;26.35;;
4903;SDS011;2467;48.142;11.616;2022-12-18T03:12:14;45.17;;;25.25;;
4903;SDS011;2467;48.142;11.616;2022-12-18T03:12:56;41.78;;;25.02;;
4903;SDS011;2467;48.142;11.616;2022-12-18T03:13:33;48.60;;;27.95;;
4903;SDS011;2467;48.142;11.616;2022-12-18T03:14:09;48.83;;;27.90;;
4903;SDS011;2467;48.142;11.616;2022-12-18T03:14:44;45.00;;;27.63;;
4903;SDS011;2467;48.142;11.616;2022-12-18T03:15:21;47.05;;;26.95;;
4903;SDS011;2467;48.142;11.616;2022-12-18T03:15:59;43.97;;;26.00;;
4903;SDS011;2467;48.142;11.616;2022-12-18T03:16:32;49.53;;;27.27;;
4903;SDS011;2467;48.142;11.616;2022-12-18T03:17:07;46.72;;;28.40;;
4903;SDS011;2467;48.142;11.616;2022-12-18T03:17:45;45.10;;;27.38;;
4903;SDS011;2467;48.142;11.616;2022-12-18T03:18:22;45.33;;;26.88;;
4903;SDS011;2467;48.142;11.616;2022-12-18T03:18:57;42.47;;;24.20;;
4903;SDS011;2467;48.142;11.616;2022-12-18T03:19:32;46.13;;;27.75;;
4903;SDS011;2467;48.142;11.616;2022-12-18T03:20:07;46.30;;;26.92;;
4903;SDS011;2467;48.142;11.616;2022-12-18T03:20:43;47.60;;;28.25;;
4903;SDS011;2467;48.142;11.616;2022-12-18T03:21:20;40.95;;;25.15;;
4903;SDS011;2467;48.142;11.616;2022-12-18T03:21:58;49.55;;;27.05;;
4903;SDS011;2467;48.142;11.616;2022-12-18T03:22:33;45.30;;;26.88;;
4903;SDS011;2467;48.142;11.616;2022-12-18T03:23:09;44.47;;;25.55;;
4903;SDS011;2467;48.142;11.616;2022-12-18T03:23:44;45.03;;;26.33;;
4903;SDS011;2467;48.142;11.616;2022-12-18T03:24:19;38.65;;;27.35;;
4903;SDS011;2467;48.142;11.616;2022-12-18T03:24:53;38.80;;;24.45;;
4903;SDS011;2467;48.142;11.616;2022-12-18T03:25:28;44.03;;;28.75;;
4903;SDS011;2467;48.142;11.616;2022-12-18T03:26:05;42.53;;;27.65;;
4903;SDS011;2467;48.142;11.616;2022-12-18T03:26:40;47.67;;;27.20;;
4903;SDS011;2467;48.142;11.616;2022-12-18T03:27:17;43.85;;;27.55;;
4903;SDS011;2467;48.142;11.616;2022-12-18T03:27:51;44.92;;;26.83;;
4903;SDS011;2467;48.142;11.616;2022-12-18T03:28:28;45.30;;;25.23;;
4903;SDS011;2467;48.142;11.616;2022-12-18T03:29:06;46.33;;;27.08;;